Stormwatcher's Retreat Logo




                  Temp     Hi    Low   Out    Dew  Wind  Wind   Wind    Hi    Hi   Wind   Heat    THW   THSW                Rain  Solar   Solar Hi Solar   UV    UV    Hi     Heat    Cool    In     In    In     In     In   In Air          Wind  Wind    ISS   Arc.
  Date    Time     Out   Temp   Temp   Hum    Pt. Speed   Dir    Run Speed   Dir  Chill  Index  Index  Index   Bar    Rain  Rate   Rad.  Energy    Rad.  Index  Dose   UV     D-D     D-D    Temp   Hum    Dew   Heat    EMC Density     ET   Samp   Tx   Recept  Int.
------------------------------------------------------------------------------------------------------------------------------------------------------------------------------------------------------------------------------------------------------------------------
11/28/21 12:10a   55.0   55.1   55.0    98   54.4  14.0     N   2.33  22.0     S   49.2   55.3   49.5   47.7  30.194  0.00  0.00     0     0.00      0     0.0  0.00   0.0   0.069   0.000   70.8    54   53.3   69.7   9.93  .0745    0.000   201    7    100.0   10 
11/28/21 12:20a   54.9   55.1   54.8    98   54.3  14.0     N   2.33  21.0     N   49.1   55.2   49.4   47.6  30.194  0.00  0.00     0     0.00      0     0.0  0.00   0.0   0.070   0.000   70.8    54   53.3   69.7   9.93  .0745    0.000   202    7    100.0   10 
11/28/21 12:30a   54.8   54.9   54.7    98   54.2  13.0     N   2.17  20.0     N   49.4   55.1   49.7   47.9  30.191  0.00  0.00     0     0.00      0     0.0  0.00   0.0   0.071   0.000   70.7    54   53.2   69.5   9.94  .0745    0.000   202    7    100.0   10 
11/28/21 12:40a   54.7   54.8   54.7    98   54.1  14.0     N   2.33  23.0     N   48.9   55.0   49.2   47.4  30.191  0.00  0.00     0     0.00      0     0.0  0.00   0.0   0.072   0.000   70.7    54   53.2   69.5   9.94  .0745    0.000   201    7    100.0   10 
11/28/21 12:50a   54.7   54.8   54.7    98   54.1  12.0     N   2.00  24.0     N   49.7   55.0   50.0   48.1  30.194  0.00  0.00     0     0.00      0     0.0  0.00   0.0   0.072   0.000   70.7    54   53.2   69.5   9.94  .0745    0.000   201    7    100.0   10 
11/28/21  1:00a   54.5   54.7   54.5    98   53.9  13.0     N   2.17  22.0     N   49.0   54.8   49.3   47.5  30.193  0.00  0.00     0     0.00      0     0.0  0.00   0.0   0.073   0.000   70.7    54   53.2   69.5   9.94  .0745    0.000   202    7    100.0   10 
11/28/21  1:10a   54.6   54.7   54.6    98   54.0  12.0     N   2.00  24.0     N   49.6   54.9   49.9   48.0  30.194  0.00  0.00     0     0.00      0     0.0  0.00   0.0   0.072   0.000   70.6    54   53.1   69.4   9.94  .0745    0.000   204    7    100.0   10 
11/28/21  1:20a   54.6   54.7   54.6    98   54.0  12.0     N   2.00  21.0     N   49.6   54.9   49.9   48.0  30.194  0.00  0.00     0     0.00      0     0.0  0.00   0.0   0.072   0.000   70.6    54   53.1   69.4   9.94  .0745    0.000   203    7    100.0   10 
11/28/21  1:30a   54.6   54.6   54.5    98   54.0  12.0     N   2.00  21.0   SSW   49.6   54.9   49.9   48.0  30.195  0.00  0.00     0     0.00      0     0.0  0.00   0.0   0.072   0.000   70.6    54   53.1   69.4   9.94  .0745    0.000   203    7    100.0   10 
11/28/21  1:40a   54.6   54.7   54.5    98   54.0  11.0     N   1.83  20.0     N   50.1   54.9   50.4   48.4  30.199  0.00  0.00     0     0.00      0     0.0  0.00   0.0   0.072   0.000   70.5    54   53.1   69.3   9.94  .0745    0.000   203    7    100.0   10 
11/28/21  1:50a   54.5   54.6   54.5    98   53.9  11.0     N   1.83  19.0     N   50.0   54.8   50.3   48.3  30.194  0.00  0.00     0     0.00      0     0.0  0.00   0.0   0.073   0.000   70.5    54   53.1   69.3   9.94  .0745    0.000   204    7    100.0   10 
11/28/21  2:00a   54.6   54.6   54.5    98   54.0  10.0     N   1.67  19.0     N   50.7   54.9   51.0   49.0  30.195  0.00  0.00     0     0.00      0     0.0  0.00   0.0   0.072   0.000   70.5    54   53.1   69.3   9.94  .0745    0.000   204    7    100.0   10 
11/28/21  2:10a   54.6   54.7   54.6    98   54.0  11.0   SSW   1.83  19.0     N   50.1   54.9   50.4   48.4  30.199  0.00  0.00     0     0.00      0     0.0  0.00   0.0   0.072   0.000   70.4    54   53.0   69.1   9.94  .0746    0.000   203    7    100.0   10 
11/28/21  2:20a   54.7   54.7   54.6    98   54.1   9.0   SSW   1.50  17.0    SE   51.4   55.0   51.7   49.6  30.200  0.00  0.00     0     0.00      0     0.0  0.00   0.0   0.072   0.000   70.4    54   53.0   69.1   9.94  .0746    0.000   203    7    100.0   10 
11/28/21  2:30a   54.6   54.8   54.6    98   54.0  10.0   SSW   1.67  15.0     N   50.7   54.9   51.0   49.0  30.201  0.00  0.00     0     0.00      0     0.0  0.00   0.0   0.072   0.000   70.4    54   53.0   69.1   9.94  .0746    0.000   202    7    100.0   10 
11/28/21  2:40a   54.6   54.7   54.5    98   54.0  10.0     N   1.67  19.0     N   50.7   54.9   51.0   49.0  30.197  0.00  0.00     0     0.00      0     0.0  0.00   0.0   0.072   0.000   70.3    54   52.9   69.0   9.94  .0746    0.000   205    7    100.0   10 
11/28/21  2:50a   54.6   54.7   54.5    98   54.0  11.0     N   1.83  18.0     N   50.1   54.9   50.4   48.4  30.198  0.00  0.00     0     0.00      0     0.0  0.00   0.0   0.072   0.000   70.3    54   52.9   69.0   9.94  .0746    0.000   203    7    100.0   10 
11/28/21  3:00a   54.5   54.6   54.5    98   53.9  10.0     N   1.67  15.0     N   50.6   54.8   50.9   48.9  30.194  0.00  0.00     0     0.00      0     0.0  0.00   0.0   0.073   0.000   70.3    54   52.9   69.0   9.94  .0746    0.000   202    7    100.0   10 
11/28/21  3:10a   54.5   54.6   54.5    99   54.2  11.0     N   1.83  19.0     N   50.0   54.9   50.4   48.4  30.191  0.00  0.00     0     0.00      0     0.0  0.00   0.0   0.073   0.000   70.2    54   52.8   68.9   9.95  .0746    0.000   202    7    100.0   10 
11/28/21  3:20a   54.6   54.6   54.5    98   54.0  10.0     N   1.67  16.0     S   50.7   54.9   51.0   49.0  30.193  0.00  0.00     0     0.00      0     0.0  0.00   0.0   0.072   0.000   70.2    54   52.8   68.9   9.95  .0746    0.000   204    7    100.0   10 
11/28/21  3:30a   54.5   54.6   54.5    98   53.9  10.0     N   1.67  15.0     N   50.6   54.8   50.9   48.9  30.193  0.00  0.00     0     0.00      0     0.0  0.00   0.0   0.073   0.000   70.1    54   52.7   68.7   9.95  .0746    0.000   204    7    100.0   10 
11/28/21  3:40a   54.5   54.6   54.5    99   54.2  10.0     N   1.67  16.0     N   50.6   54.9   51.0   49.0  30.192  0.00  0.00     0     0.00      0     0.0  0.00   0.0   0.073   0.000   70.1    54   52.7   68.7   9.95  .0746    0.000   202    7    100.0   10 
11/28/21  3:50a   54.5   54.6   54.5    99   54.2  10.0     N   1.67  21.0     N   50.6   54.9   51.0   49.0  30.191  0.00  0.00     0     0.00      0     0.0  0.00   0.0   0.073   0.000   70.1    54   52.7   68.7   9.95  .0746    0.000   205    7    100.0   10 
11/28/21  4:00a   54.5   54.6   54.5    99   54.2  10.0     N   1.67  19.0     N   50.6   54.9   51.0   49.0  30.190  0.00  0.00     0     0.00      0     0.0  0.00   0.0   0.073   0.000   70.0    54   52.6   68.6   9.95  .0746    0.000   204    7    100.0   10 
11/28/21  4:10a   54.5   54.6   54.5    99   54.2  11.0     N   1.83  18.0     N   50.0   54.9   50.4   48.4  30.189  0.00  0.00     0     0.00      0     0.0  0.00   0.0   0.073   0.000   70.0    54   52.6   68.6   9.95  .0746    0.000   204    7    100.0   10 
11/28/21  4:20a   54.5   54.6   54.5    99   54.2  11.0     N   1.83  17.0     N   50.0   54.9   50.4   48.4  30.189  0.01  0.00     0     0.00      0     0.0  0.00   0.0   0.073   0.000   70.0    54   52.6   68.6   9.95  .0746    0.000   199    7    100.0   10 
11/28/21  4:30a   54.5   54.5   54.4    99   54.2  11.0     N   1.83  18.0     N   50.0   54.9   50.4   48.4  30.190  0.00  0.00     0     0.00      0     0.0  0.00   0.0   0.073   0.000   69.9    54   52.5   68.5   9.95  .0746    0.000   204    7    100.0   10 
11/28/21  4:40a   54.5   54.5   54.4    99   54.2  11.0     N   1.83  17.0     N   50.0   54.9   50.4   48.4  30.191  0.00  0.00     0     0.00      0     0.0  0.00   0.0   0.073   0.000   69.9    54   52.5   68.5   9.95  .0746    0.000   204    7    100.0   10 
11/28/21  4:50a   54.5   54.5   54.4    99   54.2  12.0     N   2.00  18.0     N   49.5   54.9   49.9   48.0  30.197  0.00  0.00     0     0.00      0     0.0  0.00   0.0   0.073   0.000   69.9    54   52.5   68.5   9.95  .0746    0.000   203    7    100.0   10 
11/28/21  5:00a   54.4   54.5   54.4    99   54.1  10.0     N   1.67  16.0     N   50.4   54.8   50.8   48.8  30.194  0.00  0.00     0     0.00      0     0.0  0.00   0.0   0.074   0.000   69.8    54   52.4   68.5   9.96  .0746    0.000   200    7    100.0   10 
11/28/21  5:10a   54.5   54.5   54.4    99   54.2  11.0     N   1.83  16.0   SSE   50.0   54.9   50.4   48.4  30.193  0.00  0.00     0     0.00      0     0.0  0.00   0.0   0.073   0.000   69.8    54   52.4   68.5   9.96  .0746    0.000   203    7    100.0   10 
11/28/21  5:20a   54.5   54.6   54.5    99   54.2  11.0     N   1.83  17.0     N   50.0   54.9   50.4   48.4  30.192  0.00  0.00     0     0.00      0     0.0  0.00   0.0   0.073   0.000   69.7    54   52.3   68.4   9.96  .0747    0.000   203    7    100.0   10 
11/28/21  5:30a   54.6   54.7   54.5    98   54.0  11.0     N   1.83  18.0     N   50.1   54.9   50.4   48.4  30.194  0.00  0.00     0     0.00      0     0.0  0.00   0.0   0.072   0.000   69.7    54   52.3   68.4   9.96  .0747    0.000   202    7    100.0   10 
11/28/21  5:40a   54.6   54.7   54.6    98   54.0  11.0     N   1.83  17.0     N   50.1   54.9   50.4   48.4  30.199  0.00  0.00     0     0.00      0     0.0  0.00   0.0   0.072   0.000   69.7    54   52.3   68.4   9.96  .0747    0.000   203    7    100.0   10 
11/28/21  5:50a   54.6   54.7   54.6    98   54.0  10.0     N   1.67  17.0     N   50.7   54.9   51.0   49.0  30.197  0.00  0.00     0     0.00      0     0.0  0.00   0.0   0.072   0.000   69.7    54   52.3   68.4   9.96  .0747    0.000   203    7    100.0   10 
11/28/21  6:00a   54.6   54.6   54.5    98   54.0  11.0     N   1.83  16.0   SSW   50.1   54.9   50.4   48.4  30.201  0.00  0.00     0     0.00      0     0.0  0.00   0.0   0.072   0.000   69.8    54   52.4   68.5   9.96  .0747    0.000   202    7    100.0   10 
11/28/21  6:10a   54.5   54.6   54.5    98   53.9  11.0     N   1.83  19.0     N   50.0   54.8   50.3   48.3  30.199  0.00  0.00     0     0.00      0     0.0  0.00   0.0   0.073   0.000   69.9    55   53.0   68.6  10.15  .0746    0.000   203    7    100.0   10 
11/28/21  6:20a   54.5   54.6   54.5    98   53.9  10.0     N   1.67  16.0     N   50.6   54.8   50.9   48.9  30.202  0.00  0.00     0     0.00      0     0.0  0.00   0.0   0.073   0.000   70.1    55   53.2   68.8  10.15  .0746    0.000   204    7    100.0   10 
11/28/21  6:30a   54.7   54.7   54.5    98   54.1  10.0     N   1.67  16.0     N   50.8   55.0   51.1   49.1  30.206  0.00  0.00     0     0.00      0     0.0  0.00   0.0   0.072   0.000   70.2    55   53.3   69.0  10.15  .0746    0.000   203    7    100.0   10 
11/28/21  6:40a   54.6   54.8   54.6    98   54.0  10.0   SSW   1.67  18.0     N   50.7   54.9   51.0   49.0  30.205  0.00  0.00     0     0.00      0     0.0  0.00   0.0   0.072   0.000   70.4    55   53.5   69.2  10.14  .0745    0.000   204    7    100.0   10 
11/28/21  6:50a   54.6   54.8   54.6    98   54.0  11.0     N   1.83  18.0     N   50.1   54.9   50.4   48.4  30.213  0.00  0.00     0     0.00      0     0.0  0.00   0.0   0.072   0.000   70.5    55   53.6   69.3  10.14  .0746    0.000   202    7    100.0   10 
11/28/21  7:00a   54.5   54.6   54.4    97   53.7  11.0     N   1.83  15.0     N   50.0   54.8   50.3   48.3  30.220  0.00  0.00     0     0.00      0     0.0  0.00   0.0   0.073   0.000   70.7    55   53.7   69.6  10.14  .0745    0.000   203    7    100.0   10 
11/28/21  7:10a   54.3   54.5   54.3    97   53.5  12.0     N   2.00  18.0     N   49.2   54.6   49.5   47.6  30.219  0.00  0.00     0     0.00      0     0.0  0.00   0.0   0.074   0.000   70.8    55   53.8   69.7  10.13  .0745    0.000   204    7    100.0   10 
11/28/21  7:20a   54.3   54.4   54.2    97   53.5  11.0     N   1.83  18.0     N   49.8   54.6   50.1   48.1  30.215  0.00  0.00     0     0.00      0     0.0  0.00   0.0   0.074   0.000   71.0    55   54.0   70.0  10.13  .0745    0.000   203    7    100.0   10 
11/28/21  7:30a   54.4   54.4   54.3    97   53.6  11.0     N   1.83  21.0     N   49.9   54.7   50.2   48.2  30.214  0.00  0.00     0     0.00      0     0.0  0.00   0.0   0.074   0.000   71.1    55   54.1   70.1  10.13  .0744    0.000   200    7    100.0   10 
11/28/21  7:40a   54.5   54.5   54.4    97   53.7  12.0     N   2.00  20.0     N   49.5   54.8   49.8   48.0  30.219  0.00  0.00     4     0.06      9     0.0  0.00   0.0   0.073   0.000   71.2    55   54.2   70.3  10.13  .0744    0.000   203    7    100.0   10 
11/28/21  7:50a   54.5   54.6   54.4    97   53.7  13.0     N   2.17  21.0     N   49.0   54.8   49.3   47.7  30.219  0.00  0.00    11     0.16     14     0.0  0.00   0.0   0.073   0.000   71.3    55   54.3   70.5  10.12  .0744    0.000   202    7    100.0   10 
11/28/21  8:00a   54.7   54.7   54.5    97   53.9  10.0     N   1.67  22.0     N   50.8   55.0   51.1   49.5  30.221  0.00  0.00    21     0.30     28     0.0  0.00   0.0   0.072   0.000   71.3    55   54.3   70.5  10.12  .0744    0.000   202    7    100.0   10 
11/28/21  8:10a   54.8   54.9   54.6    96   53.7  11.0     N   1.83  21.0     N   50.4   55.0   50.6   49.2  30.223  0.00  0.00    27     0.39     28     0.0  0.00   0.0   0.071   0.000   71.3    55   54.3   70.5  10.12  .0744    0.000   201    7    100.0   10 
11/28/21  8:20a   54.9   55.0   54.8    96   53.8  11.0     N   1.83  17.0     S   50.5   55.1   50.7   49.3  30.225  0.00  0.00    31     0.44     39     0.0  0.00   0.0   0.070   0.000   71.3    54   53.8   70.4   9.92  .0745    0.000   204    7    100.0   10 
11/28/21  8:30a   55.1   55.1   54.9    95   53.7   9.0     N   1.50  16.0     N   51.9   55.3   52.1   51.1  30.228  0.00  0.00    49     0.70     53     0.0  0.00   0.0   0.069   0.000   71.3    55   54.3   70.5  10.12  .0744    0.000   203    7    100.0   10 
11/28/21  8:40a   55.1   55.2   55.1    95   53.7   8.0     N   1.33  16.0     N   52.6   55.3   52.8   51.7  30.231  0.00  0.00    45     0.65     51     0.0  0.00   0.0   0.069   0.000   71.3    55   54.3   70.5  10.12  .0745    0.000   203    7    100.0   10 
11/28/21  8:50a   55.1   55.2   55.1    95   53.7   8.0     S   1.33  14.0   SSE   52.6   55.3   52.8   52.9  30.232  0.00  0.00    41     0.59     42     0.0  0.00   0.0   0.069   0.000   71.3    55   54.3   70.5  10.12  .0745    0.000   203    7    100.0   10 
11/28/21  9:00a   55.2   55.2   55.1    95   53.8   7.0     S   1.17  12.0   SSE   53.4   55.4   53.6   53.7  30.233  0.00  0.00    42     0.60     42     0.0  0.00   0.0   0.068   0.000   71.3    55   54.3   70.5  10.12  .0745    0.001   203    7    100.0   10 
11/28/21  9:10a   55.2   55.2   55.1    94   53.5   7.0     S   1.17  13.0     N   53.4   55.4   53.6   54.1  30.240  0.00  0.00    50     0.72     56     0.0  0.00   0.0   0.068   0.000   71.4    55   54.4   70.6  10.12  .0745    0.000   202    7    100.0   10 
11/28/21  9:20a   55.2   55.3   55.1    94   53.5   7.0     S   1.17  16.0     S   53.4   55.4   53.6   54.7  30.245  0.00  0.00    66     0.95     74     0.0  0.00   0.0   0.068   0.000   71.4    54   53.9   70.5   9.92  .0745    0.000   203    7    100.0   10 
11/28/21  9:30a   55.2   55.3   55.2    94   53.5   7.0     S   1.17  10.0     N   53.4   55.4   53.6   54.9  30.248  0.00  0.00    72     1.03     76     0.0  0.00   0.0   0.068   0.000   71.4    54   53.9   70.5   9.92  .0745    0.000   202    7    100.0   10 
11/28/21  9:40a   55.4   55.4   55.2    94   53.7   8.0     S   1.33  13.0     N   53.0   55.6   53.2   54.5  30.251  0.00  0.00    76     1.09     91     0.1  0.01   0.5   0.067   0.000   71.4    54   53.9   70.5   9.92  .0745    0.000   201    7    100.0   10 
11/28/21  9:50a   55.5   55.5   55.4    94   53.8   8.0   SSW   1.33  18.0   WSW   53.1   55.7   53.3   54.6  30.257  0.00  0.00    77     1.10    109     0.5  0.04   0.5   0.066   0.000   71.4    54   53.9   70.5   9.92  .0745    0.000   201    7    100.0   10 
11/28/21 10:00a   55.8   55.8   55.5    93   53.8   8.0     S   1.33  15.0   SSW   53.5   56.0   53.7   56.3  30.264  0.00  0.00   113     1.62    137     0.5  0.04   0.5   0.064   0.000   71.5    54   54.0   70.7   9.92  .0745    0.002   202    7    100.0   10 
11/28/21 10:10a   55.9   56.0   55.8    93   53.9   9.0     S   1.50  14.0   SSW   52.9   56.1   53.1   55.8  30.268  0.00  0.00   124     1.78    137     0.6  0.04   0.6   0.063   0.000   71.4    54   53.9   70.5   9.92  .0745    0.000   201    7    100.0   10 
11/28/21 10:20a   56.0   56.0   55.9    93   54.0   8.0     S   1.33  15.0   SSE   53.7   56.2   53.9   55.9  30.266  0.00  0.00    99     1.42    114     0.7  0.05   0.7   0.063   0.000   71.4    54   53.9   70.5   9.92  .0745    0.000   205    7    100.0   10 
11/28/21 10:30a   56.4   56.4   56.0    92   54.1   8.0     S   1.33  15.0     N   54.2   56.5   54.3   57.9  30.264  0.00  0.00   150     2.15    188     0.7  0.05   0.7   0.060   0.000   71.4    54   53.9   70.5   9.92  .0745    0.000   202    7    100.0   10 
11/28/21 10:40a   56.6   56.6   56.3    92   54.3   8.0     S   1.33  15.0   SSW   54.4   56.7   54.5   58.6  30.267  0.00  0.00   168     2.41    178     0.7  0.05   0.7   0.058   0.000   71.4    54   53.9   70.5   9.92  .0745    0.000   203    7    100.0   10 
11/28/21 10:50a   56.7   56.7   56.6    91   54.1  10.0   SSW   1.67  19.0     N   53.1   56.8   53.2   57.4  30.270  0.00  0.00   185     2.65    195     0.7  0.05   0.8   0.058   0.000   71.4    54   53.9   70.5   9.92  .0746    0.000   204    7    100.0   10 
11/28/21 11:00a   56.7   56.8   56.7    91   54.1  10.0     N   1.67  19.0     N   53.1   56.8   53.2   57.2  30.271  0.00  0.00   182     2.61    199     0.8  0.06   0.8   0.058   0.000   71.5    54   54.0   70.7   9.92  .0745    0.003   202    7    100.0   10 
11/28/21 11:10a   56.8   56.8   56.7    91   54.2  10.0     N   1.67  16.0     N   53.3   56.9   53.4   56.9  30.272  0.00  0.00   164     2.35    172     0.8  0.06   0.9   0.057   0.000   71.5    54   54.0   70.7   9.92  .0745    0.000   203    7    100.0   10 
11/28/21 11:20a   57.0   57.0   56.7    91   54.4   8.0     S   1.33  16.0     N   54.9   57.1   55.0   57.7  30.266  0.00  0.00   129     1.85    151     0.9  0.06   0.9   0.056   0.000   71.6    54   54.1   70.8   9.92  .0745    0.000   203    7    100.0   10 
11/28/21 11:30a   57.1   57.1   57.0    90   54.2   9.0     S   1.50  22.0    SW   54.2   57.2   54.3   56.5  30.263  0.00  0.00   120     1.72    135     0.9  0.06   0.9   0.055   0.000   71.7    54   54.2   71.0   9.92  .0745    0.000   205    7    100.0   10 
11/28/21 11:40a   57.3   57.3   57.0    90   54.4   9.0     S   1.50  16.0     N   54.5   57.4   54.6   57.6  30.257  0.00  0.00   147     2.11    195     0.9  0.06   0.9   0.053   0.000   71.8    54   54.3   71.1   9.91  .0745    0.000   204    7    100.0   10 
11/28/21 11:50a   57.4   57.4   57.3    89   54.2   9.0   SSW   1.50  14.0     N   54.6   57.5   54.7   59.2  30.252  0.00  0.00   200     2.87    234     0.9  0.06   0.9   0.053   0.000   71.8    54   54.3   71.1   9.91  .0744    0.000   202    7    100.0   10 
11/28/21 12:00p   57.5   57.5   57.3    90   54.6   8.0   SSW   1.33  13.0     N   55.5   57.6   55.6   61.3  30.247  0.00  0.00   240     3.44    290     0.9  0.06   0.9   0.052   0.000   71.8    54   54.3   71.1   9.91  .0744    0.004   203    7    100.0   10 
11/28/21 12:10p   57.4   57.5   57.3    89   54.2   9.0   SSW   1.50  15.0     N   54.6   57.5   54.7   59.9  30.244  0.00  0.00   229     3.28    279     1.0  0.07   1.0   0.053   0.000   71.9    54   54.3   71.3   9.91  .0744    0.000   205    7    100.0   10 
11/28/21 12:20p   57.3   57.5   57.2    89   54.1  11.0   SSW   1.83  18.0     S   53.2   57.4   53.3   57.2  30.251  0.00  0.00   194     2.78    227     1.0  0.07   1.1   0.053   0.000   71.9    54   54.3   71.3   9.91  .0744    0.000   202    7    100.0   10 
11/28/21 12:30p   56.7   57.2   56.7    89   53.5  13.0     N   2.17  20.0     N   51.5   56.8   51.6   55.2  30.247  0.00  0.00   191     2.74    207     0.9  0.06   1.0   0.058   0.000   71.9    54   54.3   71.3   9.91  .0744    0.000   201    7    100.0   10 
11/28/21 12:40p   56.7   56.8   56.7    89   53.5  12.0     N   2.00  19.0     N   52.0   56.8   52.1   55.5  30.246  0.00  0.00   177     2.54    306     0.9  0.06   1.0   0.058   0.000   71.9    54   54.3   71.3   9.91  .0744    0.000   202    7    100.0   10 
11/28/21 12:50p   56.2   56.7   56.2    90   53.3  14.0     N   2.33  21.0     N   50.5   56.3   50.6   53.1  30.244  0.00  0.00   153     2.19    216     0.8  0.06   0.9   0.061   0.000   71.9    54   54.3   71.3   9.91  .0744    0.000   205    7    100.0   10 
11/28/21  1:00p   56.6   56.7   56.2    90   53.7  14.0     N   2.33  23.0     N   51.0   56.7   51.1   55.7  30.237  0.00  0.00   242     3.47    480     1.0  0.07   1.1   0.058   0.000   71.9    54   54.3   71.3   9.91  .0744    0.005   202    7    100.0   10 
11/28/21  1:10p   57.2   57.2   56.7    89   54.0  14.0     N   2.33  25.0     N   51.7   57.3   51.8   58.0  30.233  0.00  0.00   324     4.64    434     1.0  0.07   1.1   0.054   0.000   71.9    54   54.3   71.3   9.91  .0744    0.000   203    7    100.0   10 
11/28/21  1:20p   57.2   57.3   57.1    88   53.7  13.0     N   2.17  23.0     N   52.1   57.2   52.1   58.9  30.232  0.00  0.00   340     4.87    401     0.9  0.06   1.0   0.054   0.000   71.9    54   54.3   71.3   9.91  .0744    0.000   204    7    100.0   10 
11/28/21  1:30p   57.6   57.7   57.2    88   54.1  14.0     N   2.33  25.0     N   52.2   57.6   52.2   59.0  30.228  0.00  0.00   359     5.15    420     0.9  0.06   1.0   0.051   0.000   71.9    54   54.3   71.3   9.91  .0744    0.000   205    7    100.0   10 
11/28/21  1:40p   57.7   57.8   57.7    87   53.9  13.0     N   2.17  24.0     N   52.7   57.7   52.7   59.1  30.227  0.00  0.00   310     4.44    371     0.8  0.06   0.9   0.051   0.000   71.9    54   54.3   71.3   9.91  .0744    0.000   202    7    100.0   10 
11/28/21  1:50p   57.8   57.9   57.7    87   54.0  13.0     N   2.17  23.0     N   52.8   57.8   52.8   59.3  30.223  0.00  0.00   319     4.57    338     0.8  0.06   0.8   0.050   0.000   71.9    54   54.3   71.3   9.91  .0743    0.000   203    7    100.0   10 
11/28/21  2:00p   57.6   57.9   57.6    87   53.8  12.0     N   2.00  21.0     N   53.0   57.6   53.0   58.7  30.225  0.00  0.00   265     3.80    352     0.7  0.05   0.8   0.051   0.000   71.9    54   54.3   71.3   9.91  .0744    0.007   203    7    100.0   10 
11/28/21  2:10p   57.0   57.6   57.0    88   53.5  14.0     N   2.33  23.0    SW   51.5   57.0   51.5   56.5  30.228  0.00  0.00   242     3.47    345     0.6  0.04   0.7   0.056   0.000   72.0    54   54.4   71.4   9.91  .0743    0.000   202    7    100.0   10 
11/28/21  2:20p   56.7   57.0   56.7    89   53.5  16.0     N   2.67  23.0     N   50.5   56.8   50.6   56.3  30.233  0.00  0.00   294     4.21    369     0.6  0.04   0.6   0.058   0.000   72.0    54   54.4   71.4   9.91  .0744    0.000   204    7    100.0   10 
11/28/21  2:30p   55.8   56.7   55.8    90   52.9  16.0     N   2.67  22.0     N   49.5   55.9   49.6   51.3  30.233  0.00  0.00   113     1.62    148     0.1  0.01   0.5   0.064   0.000   72.0    54   54.4   71.4   9.91  .0744    0.000   204    7    100.0   10 
11/28/21  2:40p   55.7   55.8   55.6    91   53.1  15.0     N   2.50  23.0     N   49.7   55.8   49.8   51.3  30.234  0.00  0.00    99     1.42    113     0.0  0.00   0.0   0.065   0.000   71.9    54   54.3   71.3   9.91  .0744    0.000   205    7    100.0   10 
11/28/21  2:50p   55.5   55.7   55.5    91   52.9  12.0     N   2.00  18.0     N   50.6   55.6   50.7   52.3  30.239  0.00  0.00    94     1.35    104     0.0  0.00   0.0   0.066   0.000   71.9    54   54.3   71.3   9.91  .0744    0.000   202    7    100.0   10 
11/28/21  3:00p   55.4   55.5   55.4    92   53.1  12.0     N   2.00  21.0     N   50.5   55.5   50.6   52.1  30.235  0.00  0.00    88     1.26     93     0.0  0.00   0.0   0.067   0.000   71.8    54   54.3   71.1   9.91  .0744    0.004   203    7    100.0   10 
11/28/21  3:10p   55.3   55.4   55.3    92   53.0  12.0     N   2.00  19.0    SE   50.4   55.4   50.5   51.4  30.238  0.00  0.00    70     1.00     79     0.0  0.00   0.0   0.067   0.000   71.9    54   54.3   71.3   9.91  .0744    0.000   203    7    100.0   10 
11/28/21  3:20p   55.4   55.4   55.2    92   53.1  13.0     N   2.17  21.0     N   50.0   55.5   50.1   50.3  30.239  0.00  0.00    49     0.70     53     0.0  0.00   0.0   0.067   0.000   71.9    54   54.3   71.3   9.91  .0744    0.000   204    7    100.0   10 
11/28/21  3:30p   55.7   55.7   55.3    91   53.1  12.0     N   2.00  23.0     N   50.8   55.8   50.9   51.0  30.238  0.00  0.00    45     0.65     49     0.0  0.00   0.0   0.065   0.000   72.0    54   54.4   71.4   9.91  .0744    0.000   201    7    100.0   10 
11/28/21  3:40p   55.8   55.8   55.7    91   53.2  13.0     N   2.17  20.0     N   50.5   55.9   50.6   50.4  30.242  0.00  0.00    35     0.50     39     0.0  0.00   0.0   0.064   0.000   71.9    54   54.3   71.3   9.91  .0744    0.000   203    7    100.0   10 
11/28/21  3:50p   55.7   55.8   55.7    91   53.1  11.0     N   1.83  18.0     N   51.4   55.8   51.5   50.9  30.244  0.00  0.00    26     0.37     28     0.0  0.00   0.0   0.065   0.000   71.9    54   54.3   71.3   9.91  .0744    0.000   198    7    100.0   10 
11/28/21  4:00p   55.8   55.8   55.7    91   53.2  11.0     N   1.83  20.0   SSW   51.5   55.9   51.6   51.3  30.241  0.00  0.00    32     0.46     42     0.0  0.00   0.0   0.064   0.000   71.9    54   54.3   71.3   9.91  .0744    0.002   203    7    100.0   10 
11/28/21  4:10p   55.8   55.9   55.8    91   53.2  10.0     N   1.67  16.0     N   52.1   55.9   52.2   52.0  30.242  0.00  0.00    34     0.49     40     0.0  0.00   0.0   0.064   0.000   71.8    54   54.3   71.1   9.91  .0744    0.000   200    7    100.0   10 
11/28/21  4:20p   55.7   55.8   55.7    90   52.8   9.0     N   1.50  21.0     S   52.6   55.8   52.7   50.9  30.239  0.00  0.00    21     0.30     26     0.0  0.00   0.0   0.065   0.000   71.8    54   54.3   71.1   9.91  .0744    0.000   204    7    100.0   10 
11/28/21  4:30p   55.7   55.8   55.6    90   52.8   9.0     N   1.50  16.0     N   52.6   55.8   52.7   50.6  30.245  0.00  0.00     9     0.13     14     0.0  0.00   0.0   0.065   0.000   71.8    54   54.3   71.1   9.91  .0744    0.000   202    7    100.0   10 
11/28/21  4:40p   55.5   55.7   55.5    91   52.9  10.0     N   1.67  16.0     N   51.7   55.6   51.8   49.7  30.248  0.00  0.00     1     0.01      5     0.0  0.00   0.0   0.066   0.000   71.7    54   54.2   71.0   9.92  .0744    0.000   205    7    100.0   10 
11/28/21  4:50p   55.4   55.5   55.4    91   52.8   7.0     S   1.17  15.0     N   53.7   55.5   53.8   51.3  30.246  0.00  0.00     0     0.00      0     0.0  0.00   0.0   0.067   0.000   71.6    54   54.1   70.8   9.92  .0745    0.000   201    7    100.0   10 
11/28/21  5:00p   55.3   55.4   55.3    91   52.7   7.0     S   1.17  13.0     S   53.6   55.4   53.7   51.2  30.239  0.00  0.00     0     0.00      0     0.0  0.00   0.0   0.067   0.000   71.6    54   54.1   70.8   9.92  .0744    0.001   204    7    100.0   10 
11/28/21  5:10p   55.2   55.3   55.1    91   52.6   7.0     S   1.17  13.0     N   53.4   55.3   53.5   51.0  30.237  0.00  0.00     0     0.00      0     0.0  0.00   0.0   0.068   0.000   71.5    54   54.0   70.7   9.92  .0745    0.000   201    7    100.0   10 
11/28/21  5:20p   55.3   55.3   55.2    91   52.7   8.0     N   1.33  16.0     N   52.9   55.4   53.0   50.6  30.249  0.00  0.00     0     0.00      0     0.0  0.00   0.0   0.067   0.000   71.5    54   54.0   70.7   9.92  .0745    0.000   202    7    100.0   10 
11/28/21  5:30p   55.2   55.3   55.1    91   52.6   9.0     N   1.50  16.0     S   52.0   55.3   52.1   49.8  30.249  0.00  0.00     0     0.00      0     0.0  0.00   0.0   0.068   0.000   71.6    54   54.1   70.8   9.92  .0745    0.000   202    7    100.0   10 
11/28/21  5:40p   55.1   55.2   55.1    90   52.2   8.0   SSW   1.33  14.0     N   52.6   55.2   52.7   50.3  30.245  0.00  0.00     0     0.00      0     0.0  0.00   0.0   0.069   0.000   71.6    54   54.1   70.8   9.92  .0745    0.000   203    7    100.0   10 
11/28/21  5:50p   55.0   55.1   55.0    90   52.1   8.0     S   1.33  15.0     N   52.5   55.1   52.6   50.2  30.243  0.00  0.00     0     0.00      0     0.0  0.00   0.0   0.069   0.000   71.6    54   54.1   70.8   9.92  .0745    0.000   201    7    100.0   10 
11/28/21  6:00p   55.1   55.1   55.0    90   52.2   7.0     S   1.17  14.0     N   53.3   55.2   53.4   50.9  30.245  0.00  0.00     0     0.00      0     0.0  0.00   0.0   0.069   0.000   71.6    54   54.1   70.8   9.92  .0745    0.001   204    7    100.0   10 
11/28/21  6:10p   55.2   55.3   55.1    90   52.3   5.0     S   0.83  12.0     S   54.3   55.3   54.4   51.9  30.242  0.00  0.00     0     0.00      0     0.0  0.00   0.0   0.068   0.000   71.6    54   54.1   70.8   9.92  .0744    0.000   204    7    100.0   10 
11/28/21  6:20p   55.5   55.5   55.2    90   52.6   5.0     S   0.83  11.0     N   54.7   55.6   54.8   52.3  30.242  0.00  0.00     0     0.00      0     0.0  0.00   0.0   0.066   0.000   71.6    54   54.1   70.8   9.92  .0744    0.000   203    7    100.0   10 
11/28/21  6:30p   56.0   56.0   55.5    89   52.8   6.0     S   1.00  12.0     N   54.8   56.1   54.9   52.4  30.242  0.00  0.00     0     0.00      0     0.0  0.00   0.0   0.063   0.000   71.5    54   54.0   70.7   9.92  .0745    0.000   202    7    100.0   10 
11/28/21  6:40p   56.2   56.2   56.0    89   53.0   6.0     S   1.00  12.0     N   55.0   56.3   55.1   52.7  30.242  0.00  0.00     0     0.00      0     0.0  0.00   0.0   0.061   0.000   71.5    54   54.0   70.7   9.92  .0745    0.000   202    7    100.0   10 
11/28/21  6:50p   56.3   56.4   56.2    89   53.1   5.0     S   0.83  11.0     N   55.6   56.4   55.7   53.3  30.238  0.00  0.00     0     0.00      0     0.0  0.00   0.0   0.060   0.000   71.5    54   54.0   70.7   9.92  .0745    0.000   203    7    100.0   10 
11/28/21  7:00p   56.6   56.6   56.3    88   53.1   5.0     S   0.83  12.0   SSE   56.0   56.6   56.0   53.6  30.239  0.00  0.00     0     0.00      0     0.0  0.00   0.0   0.058   0.000   71.5    54   54.0   70.7   9.92  .0745    0.001   203    7    100.0   10 
11/28/21  7:10p   56.8   56.8   56.6    88   53.3   5.0     S   0.83  10.0     N   56.2   56.8   56.2   53.8  30.246  0.00  0.00     0     0.00      0     0.0  0.00   0.0   0.057   0.000   71.4    54   53.9   70.5   9.92  .0745    0.000   205    7    100.0   10 
11/28/21  7:20p   56.6   56.8   56.5    88   53.1   6.0   SSW   1.00  17.0     S   55.5   56.6   55.5   53.1  30.249  0.00  0.00     0     0.00      0     0.0  0.00   0.0   0.058   0.000   71.4    54   53.9   70.5   9.92  .0745    0.000   202    7    100.0   10 
11/28/21  7:30p   56.5   56.6   56.4    88   53.0   7.0     S   1.17  13.0    SW   55.0   56.5   55.0   52.5  30.248  0.00  0.00     0     0.00      0     0.0  0.00   0.0   0.059   0.000   71.4    54   53.9   70.5   9.92  .0745    0.000   203    7    100.0   10 
11/28/21  7:40p   56.4   56.5   56.4    89   53.2   5.0     S   0.83  11.0     N   55.7   56.5   55.8   53.4  30.247  0.00  0.00     0     0.00      0     0.0  0.00   0.0   0.060   0.000   71.5    54   54.0   70.7   9.92  .0745    0.000   203    7    100.0   10 
11/28/21  7:50p   56.4   56.5   56.3    89   53.2   4.0     S   0.67   8.0     N   56.3   56.5   56.4   54.0  30.239  0.00  0.00     0     0.00      0     0.0  0.00   0.0   0.060   0.000   71.5    54   54.0   70.7   9.92  .0745    0.000   204    7    100.0   10 
11/28/21  8:00p   56.4   56.4   56.3    89   53.2   3.0     S   0.50   9.0     N   56.4   56.5   56.5   54.1  30.237  0.00  0.00     0     0.00      0     0.0  0.00   0.0   0.060   0.000   71.5    54   54.0   70.7   9.92  .0745    0.001   202    7    100.0   10 
11/28/21  8:10p   56.3   56.4   56.3    89   53.1   3.0     S   0.50   8.0     N   56.3   56.4   56.4   54.0  30.240  0.00  0.00     0     0.00      0     0.0  0.00   0.0   0.060   0.000   71.5    54   54.0   70.7   9.92  .0745    0.000   203    7    100.0   10 
11/28/21  8:20p   56.4   56.4   56.3    89   53.2   4.0     S   0.67   9.0     N   56.3   56.5   56.4   54.0  30.243  0.00  0.00     0     0.00      0     0.0  0.00   0.0   0.060   0.000   71.5    54   54.0   70.7   9.92  .0745    0.000   204    7    100.0   10 
11/28/21  8:30p   56.5   56.6   56.4    89   53.3   4.0     S   0.67   9.0     N   56.4   56.6   56.5   54.1  30.240  0.00  0.00     0     0.00      0     0.0  0.00   0.0   0.059   0.000   71.4    54   53.9   70.5   9.92  .0745    0.000   205    7    100.0   10 
11/28/21  8:40p   56.6   56.6   56.5    89   53.4   3.0     S   0.50  10.0     N   56.6   56.7   56.7   54.3  30.242  0.00  0.00     0     0.00      0     0.0  0.00   0.0   0.058   0.000   71.4    54   53.9   70.5   9.92  .0745    0.000   203    7    100.0   10 
11/28/21  8:50p   56.6   56.7   56.6    89   53.4   3.0     S   0.50   6.0   SSW   56.6   56.7   56.7   54.3  30.242  0.00  0.00     0     0.00      0     0.0  0.00   0.0   0.058   0.000   71.4    54   53.9   70.5   9.92  .0745    0.000   203    7    100.0   10 
11/28/21  9:00p   56.7   56.8   56.6    89   53.5   3.0     S   0.50   9.0     S   56.7   56.8   56.8   54.4  30.242  0.00  0.00     0     0.00      0     0.0  0.00   0.0   0.058   0.000   71.3    54   53.8   70.4   9.92  .0745    0.001   204    7    100.0   10 
11/28/21  9:10p   57.0   57.0   56.6    89   53.8   4.0     S   0.67   9.0   SSE   57.0   57.1   57.1   54.7  30.246  0.00  0.00     0     0.00      0     0.0  0.00   0.0   0.056   0.000   71.3    54   53.8   70.4   9.92  .0745    0.000   204    7    100.0   10 
11/28/21  9:20p   57.0   57.2   57.0    88   53.5   4.0     S   0.67   8.0   SSE   57.0   57.0   57.0   54.6  30.245  0.00  0.00     0     0.00      0     0.0  0.00   0.0   0.056   0.000   71.3    54   53.8   70.4   9.92  .0745    0.000   204    7    100.0   10 
11/28/21  9:30p   57.0   57.1   57.0    88   53.5   3.0     S   0.50   6.0     S   57.0   57.0   57.0   54.6  30.242  0.00  0.00     0     0.00      0     0.0  0.00   0.0   0.056   0.000   71.4    54   53.9   70.5   9.92  .0745    0.000   203    7    100.0   10 
11/28/21  9:40p   57.0   57.1   56.9    88   53.5   3.0     S   0.50   9.0     N   57.0   57.0   57.0   54.6  30.240  0.00  0.00     0     0.00      0     0.0  0.00   0.0   0.056   0.000   71.4    54   53.9   70.5   9.92  .0745    0.000   203    7    100.0   10 
11/28/21  9:50p   56.8   57.0   56.8    88   53.3   3.0     S   0.50   8.0   SSE   56.8   56.8   56.8   54.4  30.245  0.00  0.00     0     0.00      0     0.0  0.00   0.0   0.057   0.000   71.5    54   54.0   70.7   9.92  .0745    0.000   204    7    100.0   10 
11/28/21 10:00p   56.8   56.9   56.8    88   53.3   3.0     S   0.50   7.0   SSW   56.8   56.8   56.8   54.4  30.247  0.00  0.00     0     0.00      0     0.0  0.00   0.0   0.057   0.000   71.5    54   54.0   70.7   9.92  .0745    0.001   201    7    100.0   10 
11/28/21 10:10p   56.8   56.9   56.8    88   53.3   3.0     S   0.50   8.0     S   56.8   56.8   56.8   54.4  30.247  0.00  0.00     0     0.00      0     0.0  0.00   0.0   0.057   0.000   71.4    54   53.9   70.5   9.92  .0745    0.000   203    7    100.0   10 
11/28/21 10:20p   56.6   56.9   56.6    88   53.1   3.0     S   0.50   9.0     N   56.6   56.6   56.6   54.2  30.246  0.00  0.00     0     0.00      0     0.0  0.00   0.0   0.058   0.000   71.4    54   53.9   70.5   9.92  .0745    0.000   205    7    100.0   10 
11/28/21 10:30p   56.5   56.6   56.5    89   53.3   4.0     S   0.67  10.0   SSW   56.4   56.6   56.5   54.1  30.245  0.00  0.00     0     0.00      0     0.0  0.00   0.0   0.059   0.000   71.4    54   53.9   70.5   9.92  .0745    0.000   203    7    100.0   10 
11/28/21 10:40p   56.4   56.6   56.4    89   53.2   4.0     S   0.67   8.0   SSW   56.3   56.5   56.4   54.0  30.250  0.00  0.00     0     0.00      0     0.0  0.00   0.0   0.060   0.000   71.4    54   53.9   70.5   9.92  .0745    0.000   202    7    100.0   10 
11/28/21 10:50p   56.3   56.6   56.3    89   53.1   8.0   SSW   1.33  12.0     N   54.1   56.4   54.2   51.9  30.253  0.00  0.00     0     0.00      0     0.0  0.00   0.0   0.060   0.000   71.3    54   53.8   70.4   9.92  .0745    0.000   202    7    100.0   10 
11/28/21 11:00p   56.0   56.3   56.0    90   53.1  10.0     N   1.67  16.0     N   52.3   56.1   52.4   50.3  30.257  0.00  0.00     0     0.00      0     0.0  0.00   0.0   0.063   0.000   71.3    54   53.8   70.4   9.92  .0745    0.001   203    7    100.0   10 
11/28/21 11:10p   55.7   56.0   55.7    91   53.1   8.0     N   1.33  13.0   SSW   53.3   55.8   53.4   51.1  30.256  0.00  0.00     0     0.00      0     0.0  0.00   0.0   0.065   0.000   71.3    54   53.8   70.4   9.92  .0745    0.000   203    7    100.0   10 
11/28/21 11:20p   56.2   56.2   55.7    91   53.6   7.0   SSW   1.17  10.0   SSE   54.6   56.3   54.7   52.3  30.254  0.00  0.00     0     0.00      0     0.0  0.00   0.0   0.061   0.000   71.3    54   53.8   70.4   9.92  .0745    0.000   204    7    100.0   10 
11/28/21 11:30p   56.6   56.6   56.2    90   53.7   6.0     S   1.00  11.0   SSE   55.5   56.7   55.6   53.2  30.256  0.00  0.00     0     0.00      0     0.0  0.00   0.0   0.058   0.000   71.4    54   53.9   70.5   9.92  .0745    0.000   201    7    100.0   10 
11/28/21 11:40p   56.9   56.9   56.6    90   54.0   6.0     S   1.00  10.0     N   55.9   57.0   56.0   53.6  30.255  0.00  0.00     0     0.00      0     0.0  0.00   0.0   0.056   0.000   71.4    54   53.9   70.5   9.92  .0745    0.000   203    7    100.0   10 
11/28/21 11:50p   57.2   57.2   56.9    90   54.3   6.0     S   1.00  12.0   SSW   56.2   57.3   56.3   53.9  30.256  0.00  0.00     0     0.00      0     0.0  0.00   0.0   0.054   0.000   71.5    54   54.0   70.7   9.92  .0745    0.000   204    7    100.0   10 
11/29/21 12:00a   57.0   57.2   57.0    90   54.1   8.0   SSW   1.33  16.0     N   54.9   57.1   55.0   52.7  30.255  0.00  0.00     0     0.00      0     0.0  0.00   0.0   0.056   0.000   71.4    54   53.9   70.5   9.92  .0745    0.001   203    7    100.0   10 
11/29/21 12:10a   56.9   57.0   56.8    90   54.0   8.0   SSW   1.33  13.0     N   54.8   57.0   54.9   52.6  30.255  0.00  0.00     0     0.00      0     0.0  0.00   0.0   0.056   0.000   71.4    54   53.9   70.5   9.92  .0745    0.000   202    7    100.0   10 
11/29/21 12:20a   56.8   56.9   56.8    91   54.2   9.0     N   1.50  17.0     N   53.9   56.9   54.0   51.8  30.255  0.00  0.00     0     0.00      0     0.0  0.00   0.0   0.057   0.000   71.4    54   53.9   70.5   9.92  .0745    0.000   201    7    100.0   10 
11/29/21 12:30a   56.9   57.0   56.8    91   54.3   7.0     S   1.17  13.0     N   55.5   57.0   55.6   53.2  30.252  0.00  0.00     0     0.00      0     0.0  0.00   0.0   0.056   0.000   71.4    54   53.9   70.5   9.92  .0745    0.000   204    7    100.0   10 
11/29/21 12:40a   56.9   57.0   56.9    91   54.3   7.0     N   1.17  15.0     N   55.5   57.0   55.6   53.2  30.251  0.00  0.00     0     0.00      0     0.0  0.00   0.0   0.056   0.000   71.4    54   53.9   70.5   9.92  .0745    0.000   202    7    100.0   10 
11/29/21 12:50a   57.1   57.1   57.0    91   54.5   7.0     S   1.17  13.0     N   55.7   57.2   55.8   53.4  30.247  0.00  0.00     0     0.00      0     0.0  0.00   0.0   0.055   0.000   71.4    54   53.9   70.5   9.92  .0745    0.000   204    7    100.0   10 
11/29/21  1:00a   56.9   57.1   56.9    92   54.6   7.0     S   1.17  13.0     N   55.5   57.0   55.6   53.2  30.244  0.00  0.00     0     0.00      0     0.0  0.00   0.0   0.056   0.000   71.3    54   53.8   70.4   9.92  .0745    0.001   201    7    100.0   10 
Email: AdamSPAM@StormwatchersRetreat.com (To send me email remove the word 'SPAM' from my email address.)